createdAt,value
2018-08-23T00:02:13.543Z,12.67
2018-08-23T00:04:40.878Z,12.90
2018-08-23T00:07:08.239Z,13.03
2018-08-23T00:09:35.578Z,12.83
2018-08-23T00:12:02.885Z,12.90
2018-08-23T00:14:30.194Z,13.10
2018-08-23T00:16:57.627Z,14.30
2018-08-23T00:19:24.967Z,14.10
2018-08-23T00:21:52.267Z,15.13
2018-08-23T00:24:19.574Z,13.73
2018-08-23T00:26:49.608Z,14.23
2018-08-23T00:29:16.919Z,15.13
2018-08-23T00:31:51.307Z,14.60
2018-08-23T00:34:19.100Z,16.17
2018-08-23T00:36:46.419Z,14.70
2018-08-23T00:39:13.763Z,15.57
2018-08-23T00:41:43.491Z,16.90
2018-08-23T00:44:10.828Z,16.97
2018-08-23T00:46:38.229Z,14.27
2018-08-23T00:49:05.540Z,14.43
2018-08-23T00:51:32.854Z,16.30
2018-08-23T00:54:00.148Z,15.07
2018-08-23T00:56:27.459Z,14.13
2018-08-23T00:58:54.875Z,16.20
2018-08-23T01:01:22.170Z,16.40
2018-08-23T01:03:49.508Z,14.20
2018-08-23T01:06:18.239Z,16.57
2018-08-23T01:08:45.615Z,14.83
2018-08-23T01:11:12.918Z,16.00
2018-08-23T01:13:40.255Z,14.10
2018-08-23T01:16:07.568Z,16.83
2018-08-23T01:18:34.899Z,15.50
2018-08-23T01:21:07.097Z,15.97
2018-08-23T01:23:35.932Z,17.17
2018-08-23T01:26:03.296Z,15.57
2018-08-23T01:28:31.027Z,16.47
2018-08-23T01:31:08.644Z,16.20
2018-08-23T01:33:35.932Z,17.90
2018-08-23T01:36:03.268Z,18.03
2018-08-23T01:38:30.585Z,18.80
2018-08-23T01:40:57.915Z,17.60
2018-08-23T01:43:25.233Z,18.00
2018-08-23T01:45:52.556Z,17.80
2018-08-23T01:48:19.863Z,20.80
2018-08-23T01:50:47.175Z,19.87
2018-08-23T01:53:14.670Z,17.80
2018-08-23T01:55:41.964Z,18.73
2018-08-23T01:58:09.289Z,18.30
2018-08-23T02:00:36.627Z,16.83
2018-08-23T02:03:04.087Z,20.03
2018-08-23T02:05:31.392Z,18.90
2018-08-23T02:07:59.439Z,19.27
2018-08-23T02:10:26.806Z,16.87
2018-08-23T02:12:54.102Z,16.80
2018-08-23T02:15:21.394Z,16.57
2018-08-23T02:17:48.740Z,17.97
2018-08-23T02:20:16.095Z,16.10
2018-08-23T02:22:43.436Z,13.43
2018-08-23T02:25:10.772Z,14.30
2018-08-23T02:27:59.430Z,14.53
2018-08-23T02:30:38.270Z,14.30
2018-08-23T02:33:05.589Z,12.67
2018-08-23T02:35:32.920Z,15.47
2018-08-23T02:38:00.272Z,16.43
2018-08-23T02:40:27.579Z,17.30
2018-08-23T02:42:54.924Z,16.57
2018-08-23T02:45:22.241Z,15.57
2018-08-23T02:47:49.575Z,15.00
2018-08-23T02:50:16.870Z,13.43
2018-08-23T02:52:44.165Z,13.90
2018-08-23T02:55:11.483Z,12.93
2018-08-23T02:57:48.959Z,14.20
2018-08-23T03:00:16.278Z,15.47
2018-08-23T03:02:43.619Z,15.70
2018-08-23T03:05:10.944Z,13.70
2018-08-23T03:07:38.274Z,13.13
2018-08-23T03:10:05.602Z,13.63
2018-08-23T03:12:33.344Z,13.93
2018-08-23T03:15:00.670Z,13.87
2018-08-23T03:17:27.971Z,13.17
2018-08-23T03:20:10.353Z,13.97
2018-08-23T03:22:37.690Z,14.60
2018-08-23T03:25:05.589Z,14.20
2018-08-23T03:27:32.931Z,15.03
2018-08-23T03:30:00.251Z,14.77
2018-08-23T03:32:27.566Z,14.00
2018-08-23T03:34:54.959Z,16.13
2018-08-23T03:37:22.262Z,15.57
2018-08-23T03:39:49.586Z,15.50
2018-08-23T03:42:16.900Z,16.57
2018-08-23T03:44:44.244Z,15.03
2018-08-23T03:47:11.566Z,14.43
2018-08-23T03:49:38.872Z,14.60
2018-08-23T03:52:06.189Z,15.27
2018-08-23T03:54:33.530Z,15.63
2018-08-23T03:57:10.843Z,15.83
2018-08-23T03:59:38.803Z,15.40
2018-08-23T04:02:06.142Z,18.20
2018-08-23T04:04:33.493Z,16.60
2018-08-23T04:07:00.826Z,17.70
2018-08-23T04:09:28.119Z,15.73
2018-08-23T04:11:55.421Z,16.40
2018-08-23T04:14:22.726Z,16.57
2018-08-23T04:16:50.033Z,18.70
2018-08-23T04:19:17.377Z,23.47
2018-08-23T04:21:44.720Z,23.90
2018-08-23T04:24:12.050Z,23.70
2018-08-23T04:26:39.386Z,22.20
2018-08-23T04:29:06.709Z,22.27
2018-08-23T04:31:34.031Z,23.40
2018-08-23T04:34:03.766Z,20.70
2018-08-23T04:36:31.079Z,21.43
2018-08-23T04:38:58.382Z,22.33
2018-08-23T04:41:25.683Z,20.73
2018-08-23T04:43:57.798Z,19.10
2018-08-23T04:46:25.178Z,18.00
2018-08-23T04:48:52.500Z,18.00
2018-08-23T04:51:19.814Z,18.10
2018-08-23T04:53:47.111Z,19.00
2018-08-23T04:56:14.418Z,16.87
2018-08-23T04:58:41.830Z,17.70
2018-08-23T05:01:09.176Z,17.80
2018-08-23T05:03:36.498Z,17.47
2018-08-23T05:06:03.998Z,17.10
2018-08-23T05:08:31.321Z,17.70
2018-08-23T05:10:58.672Z,16.37
2018-08-23T05:13:26.053Z,16.33
2018-08-23T05:15:53.313Z,16.47
2018-08-23T05:18:20.647Z,17.30
2018-08-23T05:20:47.995Z,18.33
2018-08-23T05:23:15.352Z,16.70
2018-08-23T05:25:42.671Z,18.07
2018-08-23T05:28:10.522Z,17.53
2018-08-23T05:30:37.897Z,18.50
2018-08-23T05:33:05.264Z,19.43
2018-08-23T05:35:32.585Z,20.63
2018-08-23T05:37:59.938Z,19.07
2018-08-23T05:40:27.380Z,22.20
2018-08-23T05:42:54.749Z,22.03
2018-08-23T05:45:28.042Z,20.53
2018-08-23T05:47:55.405Z,24.63
2018-08-23T05:50:22.706Z,28.00
2018-08-23T05:52:50.014Z,28.70
2018-08-23T05:55:17.332Z,26.20
2018-08-23T05:57:44.688Z,28.20
2018-08-23T06:00:12.018Z,28.07
2018-08-23T06:02:39.383Z,28.30
2018-08-23T06:05:06.681Z,28.60
2018-08-23T06:07:33.993Z,27.33
2018-08-23T06:10:01.378Z,25.00
2018-08-23T06:12:30.421Z,27.83
2018-08-23T06:14:57.735Z,25.63
2018-08-23T06:17:25.086Z,24.17
2018-08-23T06:19:52.468Z,28.53
2018-08-23T06:22:19.750Z,32.03
2018-08-23T06:24:47.064Z,27.80
2018-08-23T06:27:14.401Z,27.00
2018-08-23T06:29:41.898Z,24.73
2018-08-23T06:32:09.274Z,26.70
2018-08-23T06:34:39.538Z,31.57
2018-08-23T06:37:06.846Z,26.07
2018-08-23T06:39:34.162Z,26.90
2018-08-23T06:42:01.484Z,27.20
2018-08-23T06:44:34.517Z,24.57
2018-08-23T06:47:01.750Z,28.63
2018-08-23T06:49:29.086Z,25.00
2018-08-23T06:52:08.865Z,27.37
2018-08-23T06:54:36.165Z,25.13
2018-08-23T06:57:03.504Z,24.20
2018-08-23T06:59:30.845Z,23.70
2018-08-23T07:01:58.163Z,25.13
2018-08-23T07:04:25.502Z,26.33
2018-08-23T07:06:52.906Z,25.67
2018-08-23T07:09:20.172Z,26.70
2018-08-23T07:11:47.569Z,28.77
2018-08-23T07:14:14.818Z,24.20
2018-08-23T07:16:42.154Z,27.17
2018-08-23T07:19:20.928Z,27.17
2018-08-23T07:21:48.431Z,26.27
2018-08-23T07:24:27.249Z,25.73
2018-08-23T07:26:54.658Z,23.87
2018-08-23T07:29:21.981Z,23.80
2018-08-23T07:32:01.678Z,26.53
2018-08-23T07:34:29.100Z,26.33
2018-08-23T07:36:58.586Z,23.80
2018-08-23T07:39:25.970Z,25.57
2018-08-23T07:41:53.372Z,24.13
2018-08-23T07:44:20.633Z,23.47
2018-08-23T07:46:48.080Z,27.47
2018-08-23T07:49:15.397Z,26.00
2018-08-23T07:51:42.716Z,25.70
2018-08-23T07:54:10.118Z,26.97
2018-08-23T07:56:37.490Z,28.00
2018-08-23T07:59:04.881Z,29.70
2018-08-23T08:01:32.247Z,28.57
2018-08-23T08:03:59.687Z,30.37
2018-08-23T08:06:27.013Z,27.97
2018-08-23T08:08:54.349Z,27.37
2018-08-23T08:11:21.694Z,26.93
2018-08-23T08:13:49.047Z,26.73
2018-08-23T08:16:16.324Z,29.47
2018-08-23T08:18:43.664Z,31.77
2018-08-23T08:21:15.623Z,30.40
2018-08-23T08:23:43.299Z,25.83
2018-08-23T08:26:10.694Z,25.70
2018-08-23T08:28:38.038Z,24.27
2018-08-23T08:31:05.366Z,25.10
2018-08-23T08:33:33.484Z,26.20
2018-08-23T08:36:01.008Z,25.10
2018-08-23T08:38:28.782Z,25.20
2018-08-23T08:40:56.179Z,21.10
2018-08-23T08:43:23.546Z,26.90
2018-08-23T08:45:50.868Z,27.33
2018-08-23T08:48:18.204Z,29.13
2018-08-23T08:50:55.706Z,27.60
2018-08-23T08:53:23.001Z,25.53
2018-08-23T08:55:50.352Z,28.63
2018-08-23T08:58:17.695Z,24.77
2018-08-23T09:00:49.394Z,30.80
2018-08-23T09:03:17.507Z,32.30
2018-08-23T09:05:44.827Z,27.60
2018-08-23T09:08:12.207Z,30.80
2018-08-23T09:10:39.533Z,25.03
2018-08-23T09:13:06.863Z,26.40
2018-08-23T09:15:34.158Z,27.33
2018-08-23T09:18:01.596Z,30.50
2018-08-23T09:20:28.906Z,31.37
2018-08-23T09:22:56.210Z,30.23
2018-08-23T09:25:24.511Z,30.23
2018-08-23T09:27:51.810Z,26.90
2018-08-23T09:30:19.138Z,27.17
2018-08-23T09:32:46.451Z,24.30
2018-08-23T09:35:13.848Z,24.60
2018-08-23T09:37:41.122Z,29.73
2018-08-23T09:40:08.449Z,26.53
2018-08-23T09:42:35.755Z,27.63
2018-08-23T09:45:11.326Z,26.73
2018-08-23T09:47:38.650Z,22.30
2018-08-23T09:50:06.083Z,22.67
2018-08-23T09:52:40.023Z,21.43
2018-08-23T09:55:07.695Z,18.30
2018-08-23T09:57:35.983Z,18.43
2018-08-23T10:00:04.976Z,20.47
2018-08-23T10:02:32.301Z,17.87
2018-08-23T10:04:59.663Z,16.80
2018-08-23T10:07:26.977Z,21.40
2018-08-23T10:09:54.266Z,21.87
2018-08-23T10:12:21.581Z,18.20
2018-08-23T10:14:48.884Z,18.43
2018-08-23T10:17:16.194Z,15.33
2018-08-23T10:19:43.477Z,19.20
2018-08-23T10:22:10.798Z,17.50
2018-08-23T10:24:38.135Z,14.37
2018-08-23T10:27:05.467Z,13.97
2018-08-23T10:29:32.785Z,13.47
2018-08-23T10:32:00.141Z,14.63
2018-08-23T10:34:27.427Z,11.67
2018-08-23T10:36:54.734Z,11.70
2018-08-23T10:39:22.046Z,12.27
2018-08-23T10:41:49.332Z,11.30
2018-08-23T10:44:16.655Z,12.80
2018-08-23T10:46:43.959Z,12.20
2018-08-23T10:49:11.291Z,13.90
2018-08-23T10:51:38.597Z,13.03
2018-08-23T10:54:05.899Z,11.13
2018-08-23T10:56:33.239Z,11.57
2018-08-23T10:59:00.621Z,11.40
2018-08-23T11:01:27.878Z,9.93
2018-08-23T11:03:55.170Z,9.60
2018-08-23T11:06:22.480Z,9.00
2018-08-23T11:08:49.778Z,8.10
2018-08-23T11:11:17.087Z,8.67
2018-08-23T11:13:44.461Z,7.67
2018-08-23T11:16:11.772Z,7.60
2018-08-23T11:18:39.074Z,6.57
2018-08-23T11:21:06.365Z,14.07
2018-08-23T11:23:33.695Z,6.30
2018-08-23T11:26:01.034Z,5.43
2018-08-23T11:28:28.325Z,5.30
2018-08-23T11:30:55.632Z,5.00
2018-08-23T11:33:22.988Z,4.60
2018-08-23T11:35:50.294Z,4.87
2018-08-23T11:38:17.605Z,4.10
2018-08-23T11:40:44.990Z,4.10
2018-08-23T11:43:12.305Z,3.60
2018-08-23T11:45:39.664Z,5.63
2018-08-23T11:48:06.975Z,3.60
2018-08-23T11:50:34.266Z,7.93
2018-08-23T11:53:01.633Z,3.43
2018-08-23T11:55:28.917Z,3.50
2018-08-23T11:57:56.219Z,3.27
2018-08-23T12:00:23.534Z,2.97
2018-08-23T12:02:50.812Z,3.17
2018-08-23T12:05:18.162Z,2.90
2018-08-23T12:07:45.491Z,3.40
2018-08-23T12:10:13.487Z,3.70
2018-08-23T12:12:41.064Z,4.07
2018-08-23T12:15:08.391Z,3.37
2018-08-23T12:17:35.702Z,2.93
2018-08-23T12:20:03.001Z,2.97
2018-08-23T12:22:30.330Z,3.33
2018-08-23T12:24:57.666Z,3.30
2018-08-23T12:27:24.990Z,3.07
2018-08-23T12:29:52.265Z,3.27
2018-08-23T12:32:19.711Z,3.37
2018-08-23T12:34:47.016Z,4.57
2018-08-23T12:37:14.954Z,2.93
2018-08-23T12:39:42.271Z,3.07
2018-08-23T12:42:09.802Z,2.90
2018-08-23T12:44:38.681Z,3.27
2018-08-23T12:47:05.998Z,2.47
2018-08-23T12:49:33.320Z,3.10
2018-08-23T12:52:00.624Z,3.23
2018-08-23T12:54:27.938Z,3.00
2018-08-23T12:56:55.219Z,2.90
2018-08-23T12:59:22.554Z,3.17
2018-08-23T13:01:49.892Z,2.83
2018-08-23T13:04:17.250Z,3.20
2018-08-23T13:06:44.499Z,4.40
2018-08-23T13:09:11.828Z,3.30
2018-08-23T13:11:39.169Z,2.90
2018-08-23T13:14:06.489Z,5.53
2018-08-23T13:16:33.877Z,3.77
2018-08-23T13:19:01.178Z,3.13
2018-08-23T13:21:28.485Z,3.80
2018-08-23T13:23:55.782Z,3.50
2018-08-23T13:26:23.094Z,4.83
2018-08-23T13:28:50.410Z,5.33
2018-08-23T13:31:17.739Z,3.80
2018-08-23T13:33:45.057Z,3.70
2018-08-23T13:36:12.490Z,3.37
2018-08-23T13:38:39.725Z,3.73
2018-08-23T13:41:07.266Z,3.43
2018-08-23T13:43:34.604Z,4.30
2018-08-23T13:46:01.879Z,3.50
2018-08-23T13:48:29.287Z,3.70
2018-08-23T13:50:56.526Z,3.23
2018-08-23T13:53:23.857Z,3.63
2018-08-23T13:55:51.187Z,3.17
2018-08-23T13:58:18.488Z,3.57
2018-08-23T14:00:45.795Z,3.53
2018-08-23T14:03:13.151Z,4.30
2018-08-23T14:05:40.489Z,3.50
2018-08-23T14:08:07.919Z,3.93
2018-08-23T14:10:35.243Z,6.40
2018-08-23T14:13:02.569Z,4.10
2018-08-23T14:15:29.904Z,4.77
2018-08-23T14:17:57.194Z,3.60
2018-08-23T14:20:24.527Z,3.70
2018-08-23T14:22:51.809Z,3.03
2018-08-23T14:25:19.273Z,3.60
2018-08-23T14:27:46.601Z,4.20
2018-08-23T14:30:13.919Z,3.83
2018-08-23T14:32:41.235Z,4.17
2018-08-23T14:35:08.558Z,4.03
2018-08-23T14:37:35.910Z,3.10
2018-08-23T14:40:03.572Z,3.20
2018-08-23T14:42:30.847Z,3.60
2018-08-23T14:44:58.173Z,3.30
2018-08-23T14:47:25.504Z,3.30
2018-08-23T14:49:52.835Z,2.97
2018-08-23T14:52:20.167Z,3.43
2018-08-23T14:54:47.514Z,4.73
2018-08-23T14:57:14.848Z,3.70
2018-08-23T14:59:42.164Z,3.50
2018-08-23T15:02:09.484Z,3.60
2018-08-23T15:04:36.850Z,3.70
2018-08-23T15:07:04.371Z,3.80
2018-08-23T15:09:31.695Z,3.80
2018-08-23T15:11:59.007Z,3.83
2018-08-23T15:14:26.392Z,4.60
2018-08-23T15:16:53.690Z,3.57
2018-08-23T15:19:21.041Z,5.77
2018-08-23T15:21:48.346Z,3.70
2018-08-23T15:24:15.670Z,3.80
2018-08-23T15:26:43.217Z,3.83
2018-08-23T15:29:13.730Z,3.40
2018-08-23T15:31:41.561Z,3.60
2018-08-23T15:34:08.874Z,3.80
2018-08-23T15:36:36.219Z,4.53
2018-08-23T15:39:07.043Z,3.70
2018-08-23T15:41:34.379Z,3.57
2018-08-23T15:44:01.695Z,3.50
2018-08-23T15:46:29.023Z,3.70
2018-08-23T15:48:56.330Z,3.80
2018-08-23T15:51:23.634Z,4.70
2018-08-23T15:53:50.946Z,3.40
2018-08-23T15:56:18.355Z,3.20
2018-08-23T15:58:45.606Z,3.90
2018-08-23T16:01:12.976Z,3.87
2018-08-23T16:03:40.355Z,5.20
2018-08-23T16:06:07.670Z,3.70
2018-08-23T16:08:35.003Z,3.50
2018-08-23T16:11:02.321Z,3.70
2018-08-23T16:13:29.634Z,3.40
2018-08-23T16:15:56.990Z,4.03
2018-08-23T16:18:24.400Z,3.60
2018-08-23T16:20:51.730Z,3.53
2018-08-23T16:23:19.630Z,3.87
2018-08-23T16:25:47.150Z,3.77
2018-08-23T16:28:14.472Z,2.67
2018-08-23T16:30:43.263Z,4.20
2018-08-23T16:33:10.695Z,4.90
2018-08-23T16:35:38.094Z,3.63
2018-08-23T16:38:05.443Z,3.30
2018-08-23T16:40:32.761Z,5.27
2018-08-23T16:43:00.228Z,4.20
2018-08-23T16:45:27.594Z,5.43
2018-08-23T16:47:54.939Z,3.77
2018-08-23T16:50:22.330Z,4.43
2018-08-23T16:52:49.745Z,4.10
2018-08-23T16:55:17.034Z,3.93
2018-08-23T16:57:44.370Z,4.50
2018-08-23T17:00:11.822Z,3.97
2018-08-23T17:02:39.267Z,3.50
2018-08-23T17:05:06.660Z,3.60
2018-08-23T17:07:34.022Z,3.70
2018-08-23T17:10:01.425Z,3.57
2018-08-23T17:12:28.730Z,3.93
2018-08-23T17:14:56.075Z,3.50
2018-08-23T17:17:23.413Z,3.70
2018-08-23T17:19:50.735Z,3.30
2018-08-23T17:22:18.122Z,4.17
2018-08-23T17:24:45.575Z,4.33
2018-08-23T17:27:12.889Z,4.33
2018-08-23T17:29:40.234Z,3.63
2018-08-23T17:32:07.531Z,4.97
2018-08-23T17:34:35.009Z,4.07
2018-08-23T17:37:02.335Z,3.80
2018-08-23T17:39:29.673Z,3.43
2018-08-23T17:41:56.980Z,3.70
2018-08-23T17:44:24.322Z,4.17
2018-08-23T17:46:51.631Z,3.60
2018-08-23T17:49:18.981Z,4.27
2018-08-23T17:51:46.352Z,4.60
2018-08-23T17:54:13.693Z,3.93
2018-08-23T17:56:41.035Z,4.20
2018-08-23T17:59:08.378Z,3.73
2018-08-23T18:01:35.682Z,3.93
2018-08-23T18:04:03.026Z,3.30
2018-08-23T18:06:30.467Z,3.87
2018-08-23T18:08:57.779Z,3.80
2018-08-23T18:11:25.162Z,3.90
2018-08-23T18:13:52.498Z,5.00
2018-08-23T18:16:19.814Z,5.47
2018-08-23T18:18:47.192Z,3.67
2018-08-23T18:21:15.342Z,3.40
2018-08-23T18:23:42.687Z,4.57
2018-08-23T18:26:10.295Z,3.50
2018-08-23T18:28:37.668Z,10.80
2018-08-23T18:31:05.232Z,7.20
2018-08-23T18:33:32.634Z,12.03
2018-08-23T18:35:59.867Z,4.20
2018-08-23T18:38:27.197Z,7.40
2018-08-23T18:40:54.502Z,7.10
2018-08-23T18:43:21.913Z,8.37
2018-08-23T18:45:49.267Z,7.80
2018-08-23T18:48:16.574Z,8.77
2018-08-23T18:50:43.882Z,4.10
2018-08-23T18:53:11.231Z,4.20
2018-08-23T18:55:38.595Z,4.27
2018-08-23T18:58:05.975Z,4.60
2018-08-23T19:00:33.314Z,6.13
2018-08-23T19:03:00.641Z,7.10
2018-08-23T19:05:27.928Z,4.93
2018-08-23T19:07:55.246Z,3.90
2018-08-23T19:10:22.566Z,4.37
2018-08-23T19:12:49.954Z,5.63
2018-08-23T19:15:17.258Z,7.30
2018-08-23T19:17:44.562Z,4.33
2018-08-23T19:20:11.898Z,4.37
2018-08-23T19:22:39.287Z,3.93
2018-08-23T19:25:06.770Z,4.00
2018-08-23T19:27:34.839Z,4.23
2018-08-23T19:30:02.201Z,4.73
2018-08-23T19:32:29.605Z,3.90
2018-08-23T19:34:56.929Z,7.87
2018-08-23T19:37:24.244Z,4.00
2018-08-23T19:39:51.538Z,4.50
2018-08-23T19:42:18.879Z,4.30
2018-08-23T19:44:46.150Z,5.90
2018-08-23T19:47:13.593Z,3.93
2018-08-23T19:49:40.952Z,5.10
2018-08-23T19:52:08.478Z,3.60
2018-08-23T19:54:35.837Z,4.47
2018-08-23T19:57:03.212Z,4.43
2018-08-23T19:59:30.608Z,4.53
2018-08-23T20:01:57.933Z,3.97
2018-08-23T20:04:25.339Z,5.03
2018-08-23T20:06:52.771Z,4.93
2018-08-23T20:09:21.099Z,6.10
2018-08-23T20:11:48.493Z,7.10
2018-08-23T20:14:15.945Z,4.80
2018-08-23T20:16:43.522Z,5.53
2018-08-23T20:19:10.989Z,5.37
2018-08-23T20:21:38.470Z,4.63
2018-08-23T20:24:06.116Z,4.50
2018-08-23T20:26:33.453Z,4.47
2018-08-23T20:29:00.829Z,4.67
2018-08-23T20:31:28.298Z,5.20
2018-08-23T20:33:55.749Z,6.93
2018-08-23T20:36:23.150Z,5.23
2018-08-23T20:38:50.491Z,5.50
2018-08-23T20:41:17.811Z,5.00
2018-08-23T20:43:45.133Z,4.60
2018-08-23T20:46:12.619Z,4.80
2018-08-23T20:48:40.183Z,6.53
2018-08-23T20:51:07.737Z,4.23
2018-08-23T20:53:35.093Z,4.40
2018-08-23T20:56:02.385Z,4.90
2018-08-23T20:58:29.716Z,4.10
2018-08-23T21:00:57.045Z,3.80
2018-08-23T21:03:24.381Z,3.67
2018-08-23T21:05:51.690Z,3.77
2018-08-23T21:08:19.242Z,3.80
2018-08-23T21:10:46.705Z,3.70
2018-08-23T21:13:14.466Z,4.63
2018-08-23T21:15:41.836Z,4.00
2018-08-23T21:18:09.148Z,5.97
2018-08-23T21:20:36.443Z,3.47
2018-08-23T21:23:03.798Z,6.57
2018-08-23T21:25:31.232Z,4.27
2018-08-23T21:27:58.525Z,4.13
2018-08-23T21:30:25.823Z,4.43
2018-08-23T21:32:53.129Z,4.27
2018-08-23T21:35:20.471Z,4.33
2018-08-23T21:37:47.837Z,4.30
2018-08-23T21:40:15.140Z,4.77
2018-08-23T21:42:42.467Z,4.50
2018-08-23T21:45:09.787Z,4.73
2018-08-23T21:47:37.119Z,4.47
2018-08-23T21:50:04.442Z,4.53
2018-08-23T21:52:31.889Z,4.63
2018-08-23T21:54:59.202Z,5.93
2018-08-23T21:57:26.534Z,7.27
2018-08-23T21:59:53.841Z,5.33
2018-08-23T22:02:21.128Z,4.70
2018-08-23T22:04:48.530Z,5.17
2018-08-23T22:07:15.819Z,4.93
2018-08-23T22:09:43.189Z,6.70
2018-08-23T22:12:10.535Z,5.23
2018-08-23T22:14:38.098Z,5.67
2018-08-23T22:17:05.420Z,5.00
2018-08-23T22:19:32.722Z,5.50
2018-08-23T22:22:00.076Z,4.70
2018-08-23T22:24:27.392Z,4.90
2018-08-23T22:26:54.758Z,4.97
2018-08-23T22:29:22.029Z,4.10
2018-08-23T22:31:49.320Z,4.37
2018-08-23T22:34:16.642Z,4.33
2018-08-23T22:36:43.942Z,4.87
2018-08-23T22:39:11.269Z,4.90
2018-08-23T22:41:38.638Z,5.07
2018-08-23T22:44:05.960Z,4.93
2018-08-23T22:46:33.276Z,5.17
2018-08-23T22:49:00.568Z,4.50
2018-08-23T22:51:27.887Z,4.57
2018-08-23T22:53:55.178Z,6.20
2018-08-23T22:56:22.513Z,4.30
2018-08-23T22:58:49.829Z,4.57
2018-08-23T23:01:17.147Z,5.07
2018-08-23T23:03:44.457Z,5.13
2018-08-23T23:06:11.771Z,4.63
2018-08-23T23:08:39.106Z,5.17
2018-08-23T23:11:06.458Z,5.53
2018-08-23T23:13:33.806Z,4.90
2018-08-23T23:16:01.109Z,4.80
2018-08-23T23:18:28.412Z,5.70
2018-08-23T23:20:55.730Z,5.97
2018-08-23T23:23:23.014Z,5.13
2018-08-23T23:25:50.333Z,6.00
2018-08-23T23:28:17.638Z,5.07
2018-08-23T23:30:44.950Z,5.40
2018-08-23T23:33:12.273Z,4.67
2018-08-23T23:35:39.575Z,5.17
2018-08-23T23:38:06.886Z,5.40
2018-08-23T23:40:34.194Z,5.93
2018-08-23T23:43:01.502Z,5.13
2018-08-23T23:45:28.803Z,5.33
2018-08-23T23:47:56.117Z,5.70
2018-08-23T23:50:23.410Z,6.50
2018-08-23T23:52:50.705Z,6.00
2018-08-23T23:55:18.026Z,5.10
2018-08-23T23:57:45.330Z,5.47
